sensor_id;sensor_type;location;lat;lon;timestamp;temperature;humidity
1225;DHT22;602;48.000;7.840;2022-11-04T00:02:03;12.40;99.90
1225;DHT22;602;48.000;7.840;2022-11-04T00:04:30;12.30;99.90
1225;DHT22;602;48.000;7.840;2022-11-04T00:06:58;12.40;99.90
1225;DHT22;602;48.000;7.840;2022-11-04T00:09:26;12.40;99.90
1225;DHT22;602;48.000;7.840;2022-11-04T00:11:53;12.40;99.90
1225;DHT22;602;48.000;7.840;2022-11-04T00:14:38;12.40;99.90
1225;DHT22;602;48.000;7.840;2022-11-04T00:17:07;12.40;99.90
1225;DHT22;602;48.000;7.840;2022-11-04T00:19:44;12.40;99.90
1225;DHT22;602;48.000;7.840;2022-11-04T00:22:30;12.30;99.90
1225;DHT22;602;48.000;7.840;2022-11-04T00:25:15;12.30;99.90
1225;DHT22;602;48.000;7.840;2022-11-04T00:28:04;12.40;99.90
1225;DHT22;602;48.000;7.840;2022-11-04T00:30:45;12.30;99.90
1225;DHT22;602;48.000;7.840;2022-11-04T00:33:12;12.40;99.90
1225;DHT22;602;48.000;7.840;2022-11-04T00:35:50;12.30;99.90
1225;DHT22;602;48.000;7.840;2022-11-04T00:38:19;12.20;99.90
1225;DHT22;602;48.000;7.840;2022-11-04T00:40:46;12.10;99.90
1225;DHT22;602;48.000;7.840;2022-11-04T00:43:13;12.20;99.90
1225;DHT22;602;48.000;7.840;2022-11-04T00:45:40;12.20;99.90
1225;DHT22;602;48.000;7.840;2022-11-04T00:48:07;12.20;99.90
1225;DHT22;602;48.000;7.840;2022-11-04T00:50:35;12.20;99.90
1225;DHT22;602;48.000;7.840;2022-11-04T00:53:02;12.20;99.90
1225;DHT22;602;48.000;7.840;2022-11-04T00:55:30;12.10;99.90
1225;DHT22;602;48.000;7.840;2022-11-04T00:57:57;12.10;99.90
1225;DHT22;602;48.000;7.840;2022-11-04T01:00:25;12.10;99.90
1225;DHT22;602;48.000;7.840;2022-11-04T01:02:52;12.20;99.90
1225;DHT22;602;48.000;7.840;2022-11-04T01:05:18;12.20;99.90
1225;DHT22;602;48.000;7.840;2022-11-04T01:07:45;12.20;99.90
1225;DHT22;602;48.000;7.840;2022-11-04T01:10:12;12.20;99.90
1225;DHT22;602;48.000;7.840;2022-11-04T01:12:40;12.20;99.90
1225;DHT22;602;48.000;7.840;2022-11-04T01:15:08;12.10;99.90
1225;DHT22;602;48.000;7.840;2022-11-04T01:17:35;12.10;99.90
1225;DHT22;602;48.000;7.840;2022-11-04T01:20:02;12.00;99.90
1225;DHT22;602;48.000;7.840;2022-11-04T01:22:29;12.00;99.90
1225;DHT22;602;48.000;7.840;2022-11-04T01:24:56;12.10;99.90
1225;DHT22;602;48.000;7.840;2022-11-04T01:27:23;12.00;99.90
1225;DHT22;602;48.000;7.840;2022-11-04T01:29:51;12.00;99.90
1225;DHT22;602;48.000;7.840;2022-11-04T01:32:18;11.90;99.90
1225;DHT22;602;48.000;7.840;2022-11-04T01:34:45;11.90;99.90
1225;DHT22;602;48.000;7.840;2022-11-04T01:37:12;11.90;99.90
1225;DHT22;602;48.000;7.840;2022-11-04T01:39:39;11.90;99.90
1225;DHT22;602;48.000;7.840;2022-11-04T01:42:08;11.90;99.90
1225;DHT22;602;48.000;7.840;2022-11-04T01:44:56;11.90;99.90
1225;DHT22;602;48.000;7.840;2022-11-04T01:47:30;11.90;99.90
1225;DHT22;602;48.000;7.840;2022-11-04T01:50:02;11.90;99.90
1225;DHT22;602;48.000;7.840;2022-11-04T01:52:34;11.80;99.90
1225;DHT22;602;48.000;7.840;2022-11-04T01:55:06;11.80;99.90
1225;DHT22;602;48.000;7.840;2022-11-04T01:57:37;11.80;99.90
1225;DHT22;602;48.000;7.840;2022-11-04T02:00:08;11.80;99.90
1225;DHT22;602;48.000;7.840;2022-11-04T02:02:39;11.80;99.90
1225;DHT22;602;48.000;7.840;2022-11-04T02:05:09;11.80;99.90
1225;DHT22;602;48.000;7.840;2022-11-04T02:07:36;11.80;99.90
1225;DHT22;602;48.000;7.840;2022-11-04T02:10:04;11.70;99.90
1225;DHT22;602;48.000;7.840;2022-11-04T02:12:32;11.70;99.90
1225;DHT22;602;48.000;7.840;2022-11-04T02:15:26;11.70;99.90
1225;DHT22;602;48.000;7.840;2022-11-04T02:18:05;11.70;99.90
1225;DHT22;602;48.000;7.840;2022-11-04T02:20:48;11.70;99.90
1225;DHT22;602;48.000;7.840;2022-11-04T02:27:01;11.70;99.90
1225;DHT22;602;48.000;7.840;2022-11-04T02:29:59;11.80;99.90
1225;DHT22;602;48.000;7.840;2022-11-04T02:32:37;11.80;99.90
1225;DHT22;602;48.000;7.840;2022-11-04T02:35:10;11.80;99.90
1225;DHT22;602;48.000;7.840;2022-11-04T02:37:44;11.80;99.90
1225;DHT22;602;48.000;7.840;2022-11-04T02:40:20;11.80;99.90
1225;DHT22;602;48.000;7.840;2022-11-04T02:42:56;11.80;99.90
1225;DHT22;602;48.000;7.840;2022-11-04T02:45:32;11.70;99.90
1225;DHT22;602;48.000;7.840;2022-11-04T02:48:07;11.80;99.90
1225;DHT22;602;48.000;7.840;2022-11-04T02:50:40;11.80;99.90
1225;DHT22;602;48.000;7.840;2022-11-04T02:53:15;11.80;99.90
1225;DHT22;602;48.000;7.840;2022-11-04T02:55:46;11.80;99.90
1225;DHT22;602;48.000;7.840;2022-11-04T02:58:17;11.70;99.90
1225;DHT22;602;48.000;7.840;2022-11-04T03:00:47;11.80;99.90
1225;DHT22;602;48.000;7.840;2022-11-04T03:03:20;11.90;99.90
1225;DHT22;602;48.000;7.840;2022-11-04T03:05:49;11.90;99.90
1225;DHT22;602;48.000;7.840;2022-11-04T03:08:20;11.80;99.90
1225;DHT22;602;48.000;7.840;2022-11-04T03:10:51;11.90;99.90
1225;DHT22;602;48.000;7.840;2022-11-04T03:13:21;11.90;99.90
1225;DHT22;602;48.000;7.840;2022-11-04T03:15:53;11.90;99.90
1225;DHT22;602;48.000;7.840;2022-11-04T03:18:28;11.90;99.90
1225;DHT22;602;48.000;7.840;2022-11-04T03:21:01;11.80;99.90
1225;DHT22;602;48.000;7.840;2022-11-04T03:23:28;11.80;99.90
1225;DHT22;602;48.000;7.840;2022-11-04T03:26:03;11.80;99.90
1225;DHT22;602;48.000;7.840;2022-11-04T03:28:36;11.70;99.90
1225;DHT22;602;48.000;7.840;2022-11-04T03:31:11;11.80;99.90
1225;DHT22;602;48.000;7.840;2022-11-04T03:33:42;11.80;99.90
1225;DHT22;602;48.000;7.840;2022-11-04T03:36:11;11.80;99.90
1225;DHT22;602;48.000;7.840;2022-11-04T03:38:38;11.90;99.90
1225;DHT22;602;48.000;7.840;2022-11-04T03:41:11;11.80;99.90
1225;DHT22;602;48.000;7.840;2022-11-04T03:43:41;11.80;99.90
1225;DHT22;602;48.000;7.840;2022-11-04T03:46:09;11.70;99.90
1225;DHT22;602;48.000;7.840;2022-11-04T03:48:36;11.60;99.90
1225;DHT22;602;48.000;7.840;2022-11-04T03:51:03;11.60;99.90
1225;DHT22;602;48.000;7.840;2022-11-04T03:53:31;11.60;99.90
1225;DHT22;602;48.000;7.840;2022-11-04T03:56:13;11.60;99.90
1225;DHT22;602;48.000;7.840;2022-11-04T03:58:51;11.50;99.90
1225;DHT22;602;48.000;7.840;2022-11-04T04:01:27;11.60;99.90
1225;DHT22;602;48.000;7.840;2022-11-04T04:04:00;11.50;99.90
1225;DHT22;602;48.000;7.840;2022-11-04T04:06:34;11.60;99.90
1225;DHT22;602;48.000;7.840;2022-11-04T04:09:07;11.50;99.90
1225;DHT22;602;48.000;7.840;2022-11-04T04:11:41;11.40;99.90
1225;DHT22;602;48.000;7.840;2022-11-04T04:14:17;11.40;99.90
1225;DHT22;602;48.000;7.840;2022-11-04T04:17:03;11.40;99.90
1225;DHT22;602;48.000;7.840;2022-11-04T04:19:32;11.40;99.90
1225;DHT22;602;48.000;7.840;2022-11-04T04:22:03;11.40;99.90
1225;DHT22;602;48.000;7.840;2022-11-04T04:24:35;11.50;99.90
1225;DHT22;602;48.000;7.840;2022-11-04T04:27:26;11.50;99.90
1225;DHT22;602;48.000;7.840;2022-11-04T04:29:59;11.50;99.90
1225;DHT22;602;48.000;7.840;2022-11-04T04:32:32;11.50;99.90
1225;DHT22;602;48.000;7.840;2022-11-04T04:35:00;11.60;99.90
1225;DHT22;602;48.000;7.840;2022-11-04T04:37:45;11.60;99.90
1225;DHT22;602;48.000;7.840;2022-11-04T04:40:15;11.50;99.90
1225;DHT22;602;48.000;7.840;2022-11-04T04:43:02;11.50;99.90
1225;DHT22;602;48.000;7.840;2022-11-04T04:45:49;11.50;99.90
1225;DHT22;602;48.000;7.840;2022-11-04T04:48:18;11.40;99.90
1225;DHT22;602;48.000;7.840;2022-11-04T04:50:48;11.50;99.90
1225;DHT22;602;48.000;7.840;2022-11-04T04:53:17;11.60;99.90
1225;DHT22;602;48.000;7.840;2022-11-04T04:55:43;11.60;99.90
1225;DHT22;602;48.000;7.840;2022-11-04T04:58:10;11.70;99.90
1225;DHT22;602;48.000;7.840;2022-11-04T05:00:37;11.60;99.90
1225;DHT22;602;48.000;7.840;2022-11-04T05:03:04;11.60;99.90
1225;DHT22;602;48.000;7.840;2022-11-04T05:05:32;11.70;99.90
1225;DHT22;602;48.000;7.840;2022-11-04T05:08:03;11.60;99.90
1225;DHT22;602;48.000;7.840;2022-11-04T05:10:30;11.70;99.90
1225;DHT22;602;48.000;7.840;2022-11-04T05:12:58;11.70;99.90
1225;DHT22;602;48.000;7.840;2022-11-04T05:15:42;11.70;99.90
1225;DHT22;602;48.000;7.840;2022-11-04T05:18:09;11.70;99.90
1225;DHT22;602;48.000;7.840;2022-11-04T05:20:38;11.80;99.90
1225;DHT22;602;48.000;7.840;2022-11-04T05:23:05;11.70;99.90
1225;DHT22;602;48.000;7.840;2022-11-04T05:25:32;11.70;99.90
1225;DHT22;602;48.000;7.840;2022-11-04T05:27:59;11.70;99.90
1225;DHT22;602;48.000;7.840;2022-11-04T05:30:27;11.70;99.90
1225;DHT22;602;48.000;7.840;2022-11-04T05:32:53;11.70;99.90
1225;DHT22;602;48.000;7.840;2022-11-04T05:35:20;11.70;99.90
1225;DHT22;602;48.000;7.840;2022-11-04T05:37:49;11.80;99.90
1225;DHT22;602;48.000;7.840;2022-11-04T05:40:15;11.70;99.90
1225;DHT22;602;48.000;7.840;2022-11-04T05:42:42;11.70;99.90
1225;DHT22;602;48.000;7.840;2022-11-04T05:45:10;11.70;99.90
1225;DHT22;602;48.000;7.840;2022-11-04T05:47:36;11.60;99.90
1225;DHT22;602;48.000;7.840;2022-11-04T05:50:04;11.60;99.90
1225;DHT22;602;48.000;7.840;2022-11-04T05:52:31;11.60;99.90
1225;DHT22;602;48.000;7.840;2022-11-04T05:54:59;11.70;99.90
1225;DHT22;602;48.000;7.840;2022-11-04T05:57:26;11.80;99.90
1225;DHT22;602;48.000;7.840;2022-11-04T05:59:53;11.70;99.90
1225;DHT22;602;48.000;7.840;2022-11-04T06:02:19;11.80;99.90
1225;DHT22;602;48.000;7.840;2022-11-04T06:04:46;11.80;99.90
1225;DHT22;602;48.000;7.840;2022-11-04T06:07:13;11.80;99.90
1225;DHT22;602;48.000;7.840;2022-11-04T06:09:40;11.90;99.90
1225;DHT22;602;48.000;7.840;2022-11-04T06:12:10;12.00;99.90
1225;DHT22;602;48.000;7.840;2022-11-04T06:14:39;12.00;99.90
1225;DHT22;602;48.000;7.840;2022-11-04T06:17:07;12.10;99.90
1225;DHT22;602;48.000;7.840;2022-11-04T06:19:34;12.10;99.90
1225;DHT22;602;48.000;7.840;2022-11-04T06:22:01;12.10;99.90
1225;DHT22;602;48.000;7.840;2022-11-04T06:24:28;12.10;99.90
1225;DHT22;602;48.000;7.840;2022-11-04T06:26:55;12.00;99.90
1225;DHT22;602;48.000;7.840;2022-11-04T06:29:23;11.90;99.90
1225;DHT22;602;48.000;7.840;2022-11-04T06:31:50;11.90;99.90
1225;DHT22;602;48.000;7.840;2022-11-04T06:34:17;11.90;99.90
1225;DHT22;602;48.000;7.840;2022-11-04T06:36:44;12.00;99.90
1225;DHT22;602;48.000;7.840;2022-11-04T06:39:10;12.00;99.90
1225;DHT22;602;48.000;7.840;2022-11-04T06:41:37;11.90;99.90
1225;DHT22;602;48.000;7.840;2022-11-04T06:44:04;11.90;99.90
1225;DHT22;602;48.000;7.840;2022-11-04T06:46:35;11.90;99.90
1225;DHT22;602;48.000;7.840;2022-11-04T06:49:03;11.60;99.90
1225;DHT22;602;48.000;7.840;2022-11-04T06:51:31;11.60;99.90
1225;DHT22;602;48.000;7.840;2022-11-04T06:53:58;11.60;99.90
1225;DHT22;602;48.000;7.840;2022-11-04T06:56:25;11.70;99.90
1225;DHT22;602;48.000;7.840;2022-11-04T06:58:53;11.60;99.90
1225;DHT22;602;48.000;7.840;2022-11-04T07:01:22;11.70;99.90
1225;DHT22;602;48.000;7.840;2022-11-04T07:03:52;11.60;99.90
1225;DHT22;602;48.000;7.840;2022-11-04T07:06:19;11.70;99.90
1225;DHT22;602;48.000;7.840;2022-11-04T07:08:46;11.60;99.90
1225;DHT22;602;48.000;7.840;2022-11-04T07:11:14;11.60;99.90
1225;DHT22;602;48.000;7.840;2022-11-04T07:13:41;11.70;99.90
1225;DHT22;602;48.000;7.840;2022-11-04T07:16:09;11.80;99.90
1225;DHT22;602;48.000;7.840;2022-11-04T07:18:35;11.70;99.90
1225;DHT22;602;48.000;7.840;2022-11-04T07:21:04;11.80;99.90
1225;DHT22;602;48.000;7.840;2022-11-04T07:23:31;11.60;99.90
1225;DHT22;602;48.000;7.840;2022-11-04T07:25:59;11.60;99.90
1225;DHT22;602;48.000;7.840;2022-11-04T07:28:26;11.70;99.90
1225;DHT22;602;48.000;7.840;2022-11-04T07:30:55;11.80;99.90
1225;DHT22;602;48.000;7.840;2022-11-04T07:33:22;11.80;99.90
1225;DHT22;602;48.000;7.840;2022-11-04T07:35:49;11.70;99.90
1225;DHT22;602;48.000;7.840;2022-11-04T07:38:18;11.70;99.90
1225;DHT22;602;48.000;7.840;2022-11-04T07:40:45;11.60;99.90
1225;DHT22;602;48.000;7.840;2022-11-04T07:43:12;11.60;99.90
1225;DHT22;602;48.000;7.840;2022-11-04T07:45:39;11.70;99.90
1225;DHT22;602;48.000;7.840;2022-11-04T07:48:06;11.80;99.90
1225;DHT22;602;48.000;7.840;2022-11-04T07:50:33;11.90;99.90
1225;DHT22;602;48.000;7.840;2022-11-04T07:53:03;11.90;99.90
1225;DHT22;602;48.000;7.840;2022-11-04T07:55:31;12.00;99.90
1225;DHT22;602;48.000;7.840;2022-11-04T07:57:58;12.10;99.90
1225;DHT22;602;48.000;7.840;2022-11-04T08:00:25;12.20;99.90
1225;DHT22;602;48.000;7.840;2022-11-04T08:02:52;12.30;99.90
1225;DHT22;602;48.000;7.840;2022-11-04T08:05:18;12.20;99.90
1225;DHT22;602;48.000;7.840;2022-11-04T08:07:46;12.40;99.90
1225;DHT22;602;48.000;7.840;2022-11-04T08:10:13;12.50;99.90
1225;DHT22;602;48.000;7.840;2022-11-04T08:12:41;12.60;99.90
1225;DHT22;602;48.000;7.840;2022-11-04T08:15:11;12.60;99.90
1225;DHT22;602;48.000;7.840;2022-11-04T08:17:37;12.70;99.90
1225;DHT22;602;48.000;7.840;2022-11-04T08:20:05;12.70;99.90
1225;DHT22;602;48.000;7.840;2022-11-04T08:22:33;12.80;99.90
1225;DHT22;602;48.000;7.840;2022-11-04T08:25:00;12.90;99.90
1225;DHT22;602;48.000;7.840;2022-11-04T08:27:27;12.90;99.90
1225;DHT22;602;48.000;7.840;2022-11-04T08:29:55;12.90;99.90
1225;DHT22;602;48.000;7.840;2022-11-04T08:32:22;12.90;99.90
1225;DHT22;602;48.000;7.840;2022-11-04T08:34:49;13.00;99.90
1225;DHT22;602;48.000;7.840;2022-11-04T08:37:16;13.00;99.90
1225;DHT22;602;48.000;7.840;2022-11-04T08:39:43;13.00;99.90
1225;DHT22;602;48.000;7.840;2022-11-04T08:42:10;13.10;99.90
1225;DHT22;602;48.000;7.840;2022-11-04T08:44:37;13.00;99.90
1225;DHT22;602;48.000;7.840;2022-11-04T08:47:06;13.10;99.90
1225;DHT22;602;48.000;7.840;2022-11-04T08:49:37;13.20;99.90
1225;DHT22;602;48.000;7.840;2022-11-04T08:52:04;13.30;99.90
1225;DHT22;602;48.000;7.840;2022-11-04T08:54:31;13.30;99.90
1225;DHT22;602;48.000;7.840;2022-11-04T08:56:58;13.30;99.90
1225;DHT22;602;48.000;7.840;2022-11-04T08:59:25;13.30;99.90
1225;DHT22;602;48.000;7.840;2022-11-04T09:01:52;13.40;99.90
1225;DHT22;602;48.000;7.840;2022-11-04T09:04:20;13.40;99.90
1225;DHT22;602;48.000;7.840;2022-11-04T09:06:47;13.50;99.90
1225;DHT22;602;48.000;7.840;2022-11-04T09:09:16;13.60;99.90
1225;DHT22;602;48.000;7.840;2022-11-04T09:11:44;13.80;99.90
1225;DHT22;602;48.000;7.840;2022-11-04T09:14:11;13.80;99.90
1225;DHT22;602;48.000;7.840;2022-11-04T09:16:39;13.90;99.90
1225;DHT22;602;48.000;7.840;2022-11-04T09:19:06;13.90;99.90
1225;DHT22;602;48.000;7.840;2022-11-04T09:21:35;13.90;99.90
1225;DHT22;602;48.000;7.840;2022-11-04T09:24:02;13.90;99.90
1225;DHT22;602;48.000;7.840;2022-11-04T09:26:29;13.60;99.90
1225;DHT22;602;48.000;7.840;2022-11-04T09:28:56;13.50;99.90
1225;DHT22;602;48.000;7.840;2022-11-04T09:31:25;13.50;99.90
1225;DHT22;602;48.000;7.840;2022-11-04T09:33:53;13.60;99.90
1225;DHT22;602;48.000;7.840;2022-11-04T09:36:20;13.70;99.90
1225;DHT22;602;48.000;7.840;2022-11-04T09:38:48;13.70;99.90
1225;DHT22;602;48.000;7.840;2022-11-04T09:41:30;13.80;99.90
1225;DHT22;602;48.000;7.840;2022-11-04T09:44:07;14.00;99.90
1225;DHT22;602;48.000;7.840;2022-11-04T09:46:36;14.00;99.90
1225;DHT22;602;48.000;7.840;2022-11-04T09:49:07;14.00;99.90
1225;DHT22;602;48.000;7.840;2022-11-04T09:51:35;14.00;99.90
1225;DHT22;602;48.000;7.840;2022-11-04T09:54:11;14.10;99.90
1225;DHT22;602;48.000;7.840;2022-11-04T09:56:43;14.20;99.90
1225;DHT22;602;48.000;7.840;2022-11-04T09:59:14;14.30;99.90
1225;DHT22;602;48.000;7.840;2022-11-04T10:01:50;14.20;99.90
1225;DHT22;602;48.000;7.840;2022-11-04T10:04:25;14.20;99.90
1225;DHT22;602;48.000;7.840;2022-11-04T10:07:05;14.10;99.90
1225;DHT22;602;48.000;7.840;2022-11-04T10:09:46;14.20;99.90
1225;DHT22;602;48.000;7.840;2022-11-04T10:12:21;14.20;99.90
1225;DHT22;602;48.000;7.840;2022-11-04T10:15:12;14.40;99.90
1225;DHT22;602;48.000;7.840;2022-11-04T10:17:55;14.50;99.90
1225;DHT22;602;48.000;7.840;2022-11-04T10:20:34;14.50;99.90
1225;DHT22;602;48.000;7.840;2022-11-04T10:23:09;14.60;99.90
1225;DHT22;602;48.000;7.840;2022-11-04T10:25:47;14.60;99.90
1225;DHT22;602;48.000;7.840;2022-11-04T10:28:16;14.70;99.90
1225;DHT22;602;48.000;7.840;2022-11-04T10:30:46;14.80;99.90
1225;DHT22;602;48.000;7.840;2022-11-04T10:33:20;14.80;99.90
1225;DHT22;602;48.000;7.840;2022-11-04T10:35:53;14.70;99.90
1225;DHT22;602;48.000;7.840;2022-11-04T10:38:32;14.70;99.90
1225;DHT22;602;48.000;7.840;2022-11-04T10:41:15;14.80;99.90
1225;DHT22;602;48.000;7.840;2022-11-04T10:43:43;14.90;99.90
1225;DHT22;602;48.000;7.840;2022-11-04T10:46:24;14.90;99.90
1225;DHT22;602;48.000;7.840;2022-11-04T10:48:58;15.00;99.90
1225;DHT22;602;48.000;7.840;2022-11-04T10:51:26;15.00;99.90
1225;DHT22;602;48.000;7.840;2022-11-04T10:53:55;15.10;99.90
1225;DHT22;602;48.000;7.840;2022-11-04T10:56:32;15.10;99.90
1225;DHT22;602;48.000;7.840;2022-11-04T10:59:12;15.10;99.90
1225;DHT22;602;48.000;7.840;2022-11-04T11:01:48;15.00;99.90
1225;DHT22;602;48.000;7.840;2022-11-04T11:04:24;15.10;99.90
1225;DHT22;602;48.000;7.840;2022-11-04T11:06:53;15.10;99.90
1225;DHT22;602;48.000;7.840;2022-11-04T11:09:22;15.10;99.90
1225;DHT22;602;48.000;7.840;2022-11-04T11:11:56;15.10;99.90
1225;DHT22;602;48.000;7.840;2022-11-04T11:14:32;15.20;99.90
1225;DHT22;602;48.000;7.840;2022-11-04T11:17:19;15.20;99.90
1225;DHT22;602;48.000;7.840;2022-11-04T11:19:49;15.20;99.90
1225;DHT22;602;48.000;7.840;2022-11-04T11:22:29;15.20;99.90
1225;DHT22;602;48.000;7.840;2022-11-04T11:25:20;15.10;99.90
1225;DHT22;602;48.000;7.840;2022-11-04T11:27:49;15.10;99.90
1225;DHT22;602;48.000;7.840;2022-11-04T11:30:26;15.10;99.90
1225;DHT22;602;48.000;7.840;2022-11-04T11:32:57;15.00;99.90
1225;DHT22;602;48.000;7.840;2022-11-04T11:35:31;15.00;99.90
1225;DHT22;602;48.000;7.840;2022-11-04T11:37:59;15.00;99.90
1225;DHT22;602;48.000;7.840;2022-11-04T11:40:30;15.00;99.90
1225;DHT22;602;48.000;7.840;2022-11-04T11:43:00;15.00;99.90
1225;DHT22;602;48.000;7.840;2022-11-04T11:45:28;15.10;99.90
1225;DHT22;602;48.000;7.840;2022-11-04T11:47:56;15.10;99.90
1225;DHT22;602;48.000;7.840;2022-11-04T11:50:25;15.10;99.90
1225;DHT22;602;48.000;7.840;2022-11-04T11:53:12;15.10;99.90
1225;DHT22;602;48.000;7.840;2022-11-04T11:55:43;15.10;99.90
1225;DHT22;602;48.000;7.840;2022-11-04T11:58:21;15.20;99.90
1225;DHT22;602;48.000;7.840;2022-11-04T12:00:55;15.20;99.90
1225;DHT22;602;48.000;7.840;2022-11-04T12:03:28;15.20;99.90
1225;DHT22;602;48.000;7.840;2022-11-04T12:06:11;15.20;99.90
1225;DHT22;602;48.000;7.840;2022-11-04T12:08:55;15.10;99.90
1225;DHT22;602;48.000;7.840;2022-11-04T12:11:29;15.00;99.90
1225;DHT22;602;48.000;7.840;2022-11-04T12:14:03;15.00;99.90
1225;DHT22;602;48.000;7.840;2022-11-04T12:16:39;15.00;99.90
1225;DHT22;602;48.000;7.840;2022-11-04T12:19:24;14.90;99.90
1225;DHT22;602;48.000;7.840;2022-11-04T12:22:00;14.90;99.90
1225;DHT22;602;48.000;7.840;2022-11-04T12:24:37;15.00;99.90
1225;DHT22;602;48.000;7.840;2022-11-04T12:27:10;14.90;99.90
1225;DHT22;602;48.000;7.840;2022-11-04T12:30:00;14.90;99.90
1225;DHT22;602;48.000;7.840;2022-11-04T12:32:38;15.00;99.90
1225;DHT22;602;48.000;7.840;2022-11-04T12:35:14;14.90;99.90
1225;DHT22;602;48.000;7.840;2022-11-04T12:37:48;15.00;99.90
1225;DHT22;602;48.000;7.840;2022-11-04T12:40:20;15.00;99.90
1225;DHT22;602;48.000;7.840;2022-11-04T12:42:59;15.00;99.90
1225;DHT22;602;48.000;7.840;2022-11-04T12:45:36;15.10;99.90
1225;DHT22;602;48.000;7.840;2022-11-04T12:48:09;15.20;99.90
1225;DHT22;602;48.000;7.840;2022-11-04T12:50:46;15.30;99.90
1225;DHT22;602;48.000;7.840;2022-11-04T12:53:47;15.10;99.90
1225;DHT22;602;48.000;7.840;2022-11-04T12:56:19;15.10;99.90
1225;DHT22;602;48.000;7.840;2022-11-04T12:59:11;15.10;99.90
1225;DHT22;602;48.000;7.840;2022-11-04T13:01:46;15.10;99.90
1225;DHT22;602;48.000;7.840;2022-11-04T13:04:17;15.10;99.90
1225;DHT22;602;48.000;7.840;2022-11-04T13:06:48;15.20;99.90
1225;DHT22;602;48.000;7.840;2022-11-04T13:09:21;15.20;99.90
1225;DHT22;602;48.000;7.840;2022-11-04T13:11:54;15.30;99.90
1225;DHT22;602;48.000;7.840;2022-11-04T13:14:26;15.20;99.90
1225;DHT22;602;48.000;7.840;2022-11-04T13:16:57;15.20;99.90
1225;DHT22;602;48.000;7.840;2022-11-04T13:19:30;15.20;99.90
1225;DHT22;602;48.000;7.840;2022-11-04T13:22:05;15.30;99.90
1225;DHT22;602;48.000;7.840;2022-11-04T13:24:36;15.40;99.90
1225;DHT22;602;48.000;7.840;2022-11-04T13:27:12;15.50;99.90
1225;DHT22;602;48.000;7.840;2022-11-04T13:29:42;15.50;99.90
1225;DHT22;602;48.000;7.840;2022-11-04T13:32:18;15.50;99.90
1225;DHT22;602;48.000;7.840;2022-11-04T13:34:49;15.40;99.90
1225;DHT22;602;48.000;7.840;2022-11-04T13:37:22;15.30;99.90
1225;DHT22;602;48.000;7.840;2022-11-04T13:39:52;15.20;99.90
1225;DHT22;602;48.000;7.840;2022-11-04T13:45:46;15.20;99.90
1225;DHT22;602;48.000;7.840;2022-11-04T13:48:20;15.40;99.90
1225;DHT22;602;48.000;7.840;2022-11-04T13:50:56;15.40;99.90
1225;DHT22;602;48.000;7.840;2022-11-04T13:53:41;15.40;99.90
1225;DHT22;602;48.000;7.840;2022-11-04T13:56:08;15.30;99.90
1225;DHT22;602;48.000;7.840;2022-11-04T13:58:36;15.40;99.90
1225;DHT22;602;48.000;7.840;2022-11-04T14:01:12;15.40;99.90
1225;DHT22;602;48.000;7.840;2022-11-04T14:03:49;15.50;99.90
1225;DHT22;602;48.000;7.840;2022-11-04T14:06:48;15.40;99.90
1225;DHT22;602;48.000;7.840;2022-11-04T14:09:38;15.30;99.90
1225;DHT22;602;48.000;7.840;2022-11-04T14:12:29;15.40;99.90
1225;DHT22;602;48.000;7.840;2022-11-04T14:15:04;15.30;99.90
1225;DHT22;602;48.000;7.840;2022-11-04T14:18:01;15.30;99.90
1225;DHT22;602;48.000;7.840;2022-11-04T14:20:34;15.40;99.90
1225;DHT22;602;48.000;7.840;2022-11-04T14:23:03;15.50;99.90
1225;DHT22;602;48.000;7.840;2022-11-04T14:25:34;15.40;99.90
1225;DHT22;602;48.000;7.840;2022-11-04T14:28:16;15.40;99.90
1225;DHT22;602;48.000;7.840;2022-11-04T14:30:48;15.40;99.90
1225;DHT22;602;48.000;7.840;2022-11-04T14:36:29;15.40;99.90
1225;DHT22;602;48.000;7.840;2022-11-04T14:39:00;15.40;99.90
1225;DHT22;602;48.000;7.840;2022-11-04T14:41:52;15.40;99.90
1225;DHT22;602;48.000;7.840;2022-11-04T14:44:24;15.20;99.90
1225;DHT22;602;48.000;7.840;2022-11-04T14:46:55;15.30;99.90
1225;DHT22;602;48.000;7.840;2022-11-04T14:49:38;15.30;99.90
1225;DHT22;602;48.000;7.840;2022-11-04T14:52:19;15.20;99.90
1225;DHT22;602;48.000;7.840;2022-11-04T14:54:46;15.30;99.90
1225;DHT22;602;48.000;7.840;2022-11-04T14:57:14;15.20;99.90
1225;DHT22;602;48.000;7.840;2022-11-04T14:59:42;15.20;99.90
1225;DHT22;602;48.000;7.840;2022-11-04T15:02:14;15.30;99.90
1225;DHT22;602;48.000;7.840;2022-11-04T15:04:47;15.30;99.90
1225;DHT22;602;48.000;7.840;2022-11-04T15:07:25;15.10;99.90
1225;DHT22;602;48.000;7.840;2022-11-04T15:09:57;15.10;99.90
1225;DHT22;602;48.000;7.840;2022-11-04T15:12:24;15.20;99.90
1225;DHT22;602;48.000;7.840;2022-11-04T15:15:31;15.10;99.90
1225;DHT22;602;48.000;7.840;2022-11-04T15:18:00;15.10;99.90
1225;DHT22;602;48.000;7.840;2022-11-04T15:20:29;15.10;99.90
1225;DHT22;602;48.000;7.840;2022-11-04T15:22:59;15.10;99.90
1225;DHT22;602;48.000;7.840;2022-11-04T15:25:27;15.10;99.90
1225;DHT22;602;48.000;7.840;2022-11-04T15:27:54;15.00;99.90
1225;DHT22;602;48.000;7.840;2022-11-04T15:30:24;15.00;99.90
1225;DHT22;602;48.000;7.840;2022-11-04T15:32:53;15.00;99.90
1225;DHT22;602;48.000;7.840;2022-11-04T15:35:21;15.00;99.90
1225;DHT22;602;48.000;7.840;2022-11-04T15:37:48;14.90;99.90
1225;DHT22;602;48.000;7.840;2022-11-04T15:40:18;14.90;99.90
1225;DHT22;602;48.000;7.840;2022-11-04T15:42:47;14.90;99.90
1225;DHT22;602;48.000;7.840;2022-11-04T15:45:31;14.80;99.90
1225;DHT22;602;48.000;7.840;2022-11-04T15:48:20;14.70;99.90
1225;DHT22;602;48.000;7.840;2022-11-04T15:50:51;14.60;99.90
1225;DHT22;602;48.000;7.840;2022-11-04T15:53:18;14.40;99.90
1225;DHT22;602;48.000;7.840;2022-11-04T15:55:47;14.20;99.90
1225;DHT22;602;48.000;7.840;2022-11-04T15:58:15;14.20;99.90
1225;DHT22;602;48.000;7.840;2022-11-04T16:00:49;14.10;99.90
1225;DHT22;602;48.000;7.840;2022-11-04T16:03:18;13.90;99.90
1225;DHT22;602;48.000;7.840;2022-11-04T16:05:59;13.80;99.90
1225;DHT22;602;48.000;7.840;2022-11-04T16:08:29;13.70;99.90
1225;DHT22;602;48.000;7.840;2022-11-04T16:11:12;13.60;99.90
1225;DHT22;602;48.000;7.840;2022-11-04T16:13:39;13.60;99.90
1225;DHT22;602;48.000;7.840;2022-11-04T16:16:19;13.60;99.90
1225;DHT22;602;48.000;7.840;2022-11-04T16:18:51;13.50;99.90
1225;DHT22;602;48.000;7.840;2022-11-04T16:21:24;13.50;99.90
1225;DHT22;602;48.000;7.840;2022-11-04T16:23:55;13.50;99.90
1225;DHT22;602;48.000;7.840;2022-11-04T16:26:25;13.50;99.90
1225;DHT22;602;48.000;7.840;2022-11-04T16:28:53;13.40;99.90
1225;DHT22;602;48.000;7.840;2022-11-04T16:31:26;13.40;99.90
1225;DHT22;602;48.000;7.840;2022-11-04T16:33:53;13.30;99.90
1225;DHT22;602;48.000;7.840;2022-11-04T16:36:20;13.40;99.90
1225;DHT22;602;48.000;7.840;2022-11-04T16:38:54;13.40;99.90
1225;DHT22;602;48.000;7.840;2022-11-04T16:41:21;13.30;99.90
1225;DHT22;602;48.000;7.840;2022-11-04T16:43:50;13.20;99.90
1225;DHT22;602;48.000;7.840;2022-11-04T16:46:18;13.10;99.90
1225;DHT22;602;48.000;7.840;2022-11-04T16:48:44;13.10;99.90
1225;DHT22;602;48.000;7.840;2022-11-04T16:51:15;13.20;99.90
1225;DHT22;602;48.000;7.840;2022-11-04T16:53:43;13.10;99.90
1225;DHT22;602;48.000;7.840;2022-11-04T16:56:10;13.00;99.90
1225;DHT22;602;48.000;7.840;2022-11-04T16:58:38;13.00;99.90